Perry, IA

6:58 AM CDT on October 20, 2017 (GMT -0500)
Perry Municipal

Weather History for KPRO - January, 2013

Change the Weather History Date:

Friday, January 25, 2013

  Actual Average Record
Temperature  
Mean Temperature 23 °F -  
Max Temperature 36 °F 31 °F 62 °F (1981)
Min Temperature 10 °F 12 °F -14 °F (1972)
Degree Days  
Heating Degree Days 42    
Moisture  
Dew Point 14 °F    
Average Humidity 70    
Maximum Humidity 89    
Minimum Humidity 55    
Precipitation  
Precipitation 0.00 in - - ()
Sea Level Pressure  
Sea Level Pressure 30.15 in    
Wind  
Wind Speed 10 mph (WNW)    
Max Wind Speed 20 mph    
Max Gust Speed 26 mph    
Visibility 10 miles    
Events      
Averages and records for this station are not official NWS values.
T = Trace of Precipitation, MM = Missing Value Source: NWS Daily Summary

Daily Weather History Graph

Daily Weather History Graph

Search for Another Location

Airport or City:

Trip Planner

Search our weather history database for the weather conditions in past years. The results will help you decide how hot, cold, wet, or windy it might be!

Date:

Astronomy

Jan. 25, 2013 Rise Set
Actual Time 7:35 AM CST 5:23 PM CST
Civil Twilight 7:05 AM CST 5:53 PM CST
Nautical Twilight 6:31 AM CST 6:27 PM CST
Astronomical Twilight 5:58 AM CST 7:00 PM CST
Moon 4:21 PM CST (1/25) 6:15 AM CST (1/25)
Length of Visible Light 10h 48m
Length of Day
9h 48m
Waxing Gibbous, 98% of the Moon is Illuminated
Jan 25
Waxing Gibbous
Jan 26
Full
Feb 3
Last Quarter
Feb 10
New
Feb 17
First Quarter

Hourly Weather History & Observations

Time (CST) Temp. Windchill Dew Point Humidity Pressure Visibility Wind Dir Wind Speed Gust Speed Precip Events Conditions
12:15 AM 19.2 °F 8.4 °F 5.9 °F 56% 30.19 in 10.0 mi SSW 9.2 mph - N/A   Overcast
12:35 AM 19.4 °F 9.5 °F 6.1 °F 56% 30.18 in 10.0 mi SSW 8.1 mph - N/A   Overcast
12:55 AM 19.4 °F 9.5 °F 5.7 °F 55% 30.18 in 10.0 mi SSW 8.1 mph - N/A   Overcast
1:15 AM 19.4 °F 8.6 °F 6.8 °F 58% 30.15 in 10.0 mi South 9.2 mph - N/A   Overcast
1:55 AM 19.4 °F 7.9 °F 7.7 °F 60% 30.13 in 10.0 mi SSW 10.4 mph - N/A   Scattered Clouds
2:15 AM 19.9 °F 8.6 °F 8.6 °F 61% 30.12 in 10.0 mi SSW 10.4 mph - N/A   Scattered Clouds
2:55 AM 18.9 °F 9.8 °F 9.0 °F 65% 30.14 in 10.0 mi WSW 6.9 mph - N/A   Clear
3:15 AM 16.3 °F 6.7 °F 8.6 °F 72% 30.14 in 10.0 mi WSW 6.9 mph - N/A   Clear
3:35 AM 15.3 °F 6.6 °F 7.9 °F 73% 30.13 in 10.0 mi WSW 5.8 mph - N/A   Clear
3:55 AM 14.7 °F 5.9 °F 8.4 °F 76% 30.11 in 10.0 mi SSW 5.8 mph - N/A   Clear
4:15 AM 12.9 °F 3.8 °F 8.2 °F 82% 30.11 in 10.0 mi South 5.8 mph - N/A   Clear
4:55 AM 12.0 °F 2.7 °F 8.1 °F 84% 30.10 in 10.0 mi SSW 5.8 mph - N/A   Clear
5:15 AM 12.4 °F 0.9 °F 7.7 °F 82% 30.10 in 10.0 mi SSW 8.1 mph - N/A   Clear
5:35 AM 12.2 °F 1.7 °F 8.4 °F 85% 30.09 in 10.0 mi SSW 6.9 mph - N/A   Clear
5:55 AM 11.5 °F 2.1 °F 8.4 °F 87% 30.09 in 10.0 mi SSW 5.8 mph - N/A   Clear
6:15 AM 11.3 °F 1.9 °F 8.1 °F 87% 30.10 in 10.0 mi SSW 5.8 mph - N/A   Clear
6:35 AM 10.8 °F 0.0 °F 7.9 °F 88% 30.09 in 10.0 mi SSW 6.9 mph - N/A   Clear
6:55 AM 10.8 °F 1.2 °F 7.9 °F 88% 30.09 in 10.0 mi SSW 5.8 mph - N/A   Clear
7:15 AM 10.4 °F 2.2 °F 7.7 °F 89% 30.09 in 10.0 mi SSW 4.6 mph - N/A   Clear
7:35 AM 11.5 °F 0.9 °F 8.6 °F 88% 30.07 in 10.0 mi SSW 6.9 mph - N/A   Clear
7:55 AM 12.7 °F 3.6 °F 8.6 °F 84% 30.07 in 10.0 mi SW 5.8 mph - N/A   Clear
8:15 AM 17.6 °F 6.4 °F 10.6 °F 74% 30.07 in 10.0 mi WSW 9.2 mph - N/A   Clear
8:35 AM 19.2 °F 6.4 °F 11.3 °F 71% 30.09 in 10.0 mi West 12.7 mph 17.3 mph N/A   Clear
8:55 AM 20.5 °F 7.4 °F 12.0 °F 70% 30.09 in 10.0 mi West 13.8 mph - N/A   Clear
9:15 AM 22.6 °F 9.6 °F 12.9 °F 66% 30.09 in 10.0 mi West 15.0 mph - N/A   Clear
9:35 AM 25.0 °F 11.7 °F 14.5 °F 65% 30.09 in 10.0 mi WNW 17.3 mph 20.7 mph N/A   Clear
9:55 AM 25.9 °F 13.8 °F 15.1 °F 64% 30.11 in 10.0 mi NW 15.0 mph 20.7 mph N/A   Clear
10:15 AM 27.1 °F 15.4 °F 16.3 °F 64% 30.11 in 10.0 mi NW 15.0 mph - N/A   Clear
10:35 AM 27.7 °F 15.6 °F 16.9 °F 64% 30.11 in 10.0 mi NW 16.1 mph - N/A   Clear
10:55 AM 28.9 °F 17.7 °F 18.1 °F 64% 30.13 in 10.0 mi NW 15.0 mph 19.6 mph N/A   Clear
11:15 AM 29.7 °F 17.8 °F 20.1 °F 68% 30.13 in 10.0 mi NW 17.3 mph 21.9 mph N/A   Clear
11:35 AM 30.2 °F 18.1 °F 21.4 °F 70% 30.11 in 10.0 mi NNW 18.4 mph 24.2 mph N/A   Clear
11:55 AM 30.9 °F 20.7 °F 22.1 °F 70% 30.13 in 10.0 mi NW 13.8 mph 20.7 mph N/A   Clear
12:15 PM 32.0 °F 21.6 °F 23.0 °F 69% 30.11 in 10.0 mi NW 15.0 mph 21.9 mph N/A   Clear
12:35 PM 32.7 °F 22.1 °F 23.5 °F 69% 30.11 in 10.0 mi NW 16.1 mph 20.7 mph N/A   Clear
12:55 PM 33.8 °F 23.5 °F 23.7 °F 67% 30.11 in 10.0 mi WNW 16.1 mph 25.3 mph N/A   Clear
1:15 PM 34.7 °F 23.7 °F 23.9 °F 65% 30.11 in 10.0 mi NW 19.6 mph 26.5 mph N/A   Clear
1:35 PM 34.9 °F 24.6 °F 24.4 °F 66% 30.10 in 10.0 mi NW 17.3 mph 24.2 mph N/A   Clear
1:55 PM 35.6 °F 25.2 °F 24.6 °F 64% 30.10 in 10.0 mi NW 18.4 mph 24.2 mph N/A   Clear
2:15 PM 36.3 °F 27.1 °F 24.8 °F 63% 30.10 in 10.0 mi NW 15.0 mph 23.0 mph N/A   Clear
2:35 PM 36.0 °F 26.3 °F 24.4 °F 63% 30.10 in 10.0 mi NW 16.1 mph 23.0 mph N/A   Clear
2:55 PM 36.3 °F 27.1 °F 24.6 °F 63% 30.11 in 10.0 mi NW 15.0 mph 23.0 mph N/A   Clear
3:15 PM 36.9 °F 27.1 °F 25.3 °F 63% 30.11 in 10.0 mi NW 17.3 mph - N/A   Clear
3:55 PM 36.1 °F 28.2 °F 25.2 °F 64% 30.11 in 10.0 mi NW 11.5 mph - N/A   Clear
4:15 PM 35.4 °F 26.0 °F 24.8 °F 65% 30.11 in 10.0 mi NW 15.0 mph 19.6 mph N/A   Clear
4:55 PM 34.3 °F 25.0 °F 24.6 °F 68% 30.13 in 10.0 mi NW 13.8 mph 18.4 mph N/A   Clear
5:15 PM 33.3 °F 24.6 °F 24.8 °F 71% 30.13 in 10.0 mi NW 11.5 mph - N/A   Clear
5:35 PM 32.0 °F 24.2 °F 24.6 °F 74% 30.13 in 10.0 mi NW 9.2 mph - N/A   Clear
5:55 PM 31.6 °F 23.7 °F 23.9 °F 73% 30.15 in 10.0 mi NNW 9.2 mph - N/A   Clear
6:15 PM 30.9 °F 22.2 °F 23.7 °F 75% 30.15 in 10.0 mi NNW 10.4 mph - N/A   Clear
6:35 PM 29.8 °F 20.9 °F 23.5 °F 77% 30.16 in 10.0 mi NNW 10.4 mph - N/A   Clear
6:55 PM 29.5 °F 19.3 °F 22.8 °F 76% 30.17 in 10.0 mi NNW 12.7 mph - N/A   Clear
7:15 PM 28.2 °F 17.7 °F 22.1 °F 78% 30.18 in 10.0 mi North 12.7 mph - N/A   Clear
7:55 PM 24.3 °F 12.7 °F 16.5 °F 72% 30.20 in 10.0 mi North 12.7 mph - N/A   Clear
8:15 PM 21.9 °F 9.8 °F 13.3 °F 69% 30.21 in 10.0 mi North 12.7 mph 16.1 mph N/A   Clear
8:35 PM 20.7 °F 8.8 °F 12.2 °F 70% 30.22 in 10.0 mi North 11.5 mph 16.1 mph N/A   Clear
8:55 PM 19.2 °F 6.4 °F 9.9 °F 67% 30.24 in 10.0 mi North 12.7 mph - N/A   Clear
9:15 PM 18.1 °F 7.1 °F 9.3 °F 68% 30.26 in 10.0 mi North 9.2 mph - N/A   Clear
9:35 PM 17.1 °F 3.0 °F 8.2 °F 68% 30.26 in 10.0 mi North 13.8 mph 17.3 mph N/A   Clear
9:55 PM 16.3 °F 4.1 °F 7.9 °F 69% 30.28 in 10.0 mi NNW 10.4 mph - N/A   Clear
10:15 PM 15.8 °F 4.2 °F 6.4 °F 67% 30.28 in 10.0 mi North 9.2 mph - N/A   Clear
10:35 PM 14.9 °F 3.1 °F 6.3 °F 69% 30.28 in 10.0 mi North 9.2 mph - N/A   Clear
10:55 PM 14.0 °F 0.5 °F 4.8 °F 67% 30.28 in 10.0 mi North 11.5 mph - N/A   Clear
11:15 PM 13.8 °F -0.5 °F 4.3 °F 66% 30.29 in 10.0 mi North 12.7 mph - N/A   Clear
11:35 PM 13.3 °F -2.4 °F 2.1 °F 61% 30.29 in 10.0 mi North 15.0 mph - N/A   Clear
11:55 PM 12.6 °F 2.2 °F 3.0 °F 66% 30.29 in 10.0 mi North 6.9 mph - N/A   Clear